Juergen K — PBKV — position and weather

sailwx.info

Track history (hours):
 
Tides and Currents Weather Stations Pressure Air Temp Water Temp Dewpoint Dewpoint Depression Visibility Wind Speed Wind Dir Waves Ship Positions

Juergen K

Last reported at 2017-Jan-13 09:32 UTC. Time now 2017-Jan-19 15:08 UTC.
Position N 38°53' E 009°18'.

Length 89 m; draft 5.6 m.

Type: Cargo ship. MMSI: 244329000.

Date/timePositionNaut miles runAvg speedWind from/ knotsBaromVisibWave heightAir tempDewpointWater temp
2017-Jan-13 09:32N 38°53' E 009°18'  
2017-Jan-04 20:17N 36°25' W 001°57'7 9.5
2017-Jan-04 19:34N 36°23' W 002°05'9 9.4
2017-Jan-04 18:33N 36°21' W 002°17'10 9.9
2017-Jan-04 17:32N 36°19' W 002°29'125 9.6
2017-Jan-04 04:32N 35°58' W 005°02'1111.2
2017-Jan-04 03:33N 35°56' W 005°16'4 3.5
2017-Jan-04 02:30N 35°54' W 005°19'0 0.0
2017-Jan-04 01:33N 35°54' W 005°19'0 0.0
2017-Jan-04 00:33N 35°54' W 005°19'2 1.9
2017-Jan-03 23:33N 35°55' W 005°21'1110.5
2017-Jan-03 22:33N 35°55' W 005°34'1111.4
2017-Jan-03 21:33N 35°55' W 005°48'  
Track history (hours):
 
Tides and Currents Weather Stations Pressure Air Temp Water Temp Dewpoint Dewpoint Depression Visibility Wind Speed Wind Dir Waves Ship Positions

Juergen K

Last reported at 2017-Jan-13 09:32 UTC. Time now 2017-Jan-19 15:08 UTC.
Position N 38°53' E 009°18'.

Length 89 m; draft 5.6 m.

Type: Cargo ship. MMSI: 244329000.

Date/timePositionNaut miles runAvg speedWind from/ knotsBaromVisibWave heightAir tempDewpointWater temp
2017-Jan-13 09:32N 38°53' E 009°18'  
2017-Jan-04 20:17N 36°25' W 001°57'7 9.5
2017-Jan-04 19:34N 36°23' W 002°05'9 9.4
2017-Jan-04 18:33N 36°21' W 002°17'10 9.9
2017-Jan-04 17:32N 36°19' W 002°29'125 9.6
2017-Jan-04 04:32N 35°58' W 005°02'1111.2
2017-Jan-04 03:33N 35°56' W 005°16'4 3.5
2017-Jan-04 02:30N 35°54' W 005°19'0 0.0
2017-Jan-04 01:33N 35°54' W 005°19'0 0.0
2017-Jan-04 00:33N 35°54' W 005°19'2 1.9
2017-Jan-03 23:33N 35°55' W 005°21'1110.5
2017-Jan-03 22:33N 35°55' W 005°34'1111.4
2017-Jan-03 21:33N 35°55' W 005°48'  

Dump ship's entire track history